x

Western Gulf Of Alaska - 175nm Se Of Kodiak, Ak (46001) Wave Buoy

2:50am - Sun 29th May 2016 All times are AKDT. -8 hours from GMT.

  • Sig Wave height 3.3ft
  • Peak Period 10s
  • Average Period 6s
  • Wind
    11mph, 16mph gusts
  • Sea Temp 49°f
  • Air Temp 46°f
  • Sea Pressure 1018.6mb
  • Western Gulf Of Alaska  - 175nm Se Of Kodiak, Ak
  • Western Gulf Of Alaska  - 175nm Se Of Kodiak, Ak

More Historic Weather Station data

Upgrade to MSW Pro to gain access to the past 30 days of data for over 8000 Wavebouys and Weather Stations around the globe.

Join Pro

Comparision Forecast

View Surf forecast
   
Sun 05/29 2:50am 3.5ft 10s 6s 11 16 mph 1018.6mb 49f 46f
1:50am 2.5ft 7s 6s 11 13 mph 1018.6mb 49f 46f
12:50am 2.5ft 10s 6s 9 11 mph 1018.7mb 49f 46f
Sat 05/28 11:50pm 2.5ft 11s 5s 9 11 mph 1018.8mb 49f 46f
10:50pm 3ft 11s 5s 11
mph
1018.9mb 49f 46f
9:50pm 2.5ft 11s 5s 11 13 mph 1018.7mb 49f 46f
8:50pm 2.5ft 11s 6s 7 9 mph 1018.8mb 49f 47f
7:50pm 2.5ft 11s 6s 9 11 mph 1018.7mb 49f 47f
6:50pm 3ft 11s 7s 9 11 mph 1018.8mb 49f 47f
5:50pm 2.5ft 11s 6s 11
mph
1019mb 49f 46f
4:50pm 2.5ft 11s 6s 7 9 mph 1019.2mb 49f 47f
3:50pm 3ft 11s 7s 9 11 mph 1019.4mb 49f 47f
2:50pm 3ft 11s 8s 9 11 mph 1019.4mb 49f 46f
1:50pm 3.5ft 11s 8s 7
mph
1019.3mb 49f 46f
12:50pm 3ft 11s 8s 7 9 mph 1019.4mb 49f 46f
11:50am 3ft 11s 8s 2 4 mph 1019.5mb 49f 45f
10:50am 2.5ft 11s 7s 2
mph
1019.6mb 49f 46f
9:50am 2.5ft 11s 6s  -  2 mph 1019.2mb 49f 45f
8:50am 2ft 7s 5s  -  mph 1019.1mb 49f 45f
7:50am 2.5ft 7s 5s 2
mph
1019.3mb 48f 44f
6:50am 2.5ft 7s 6s 2
mph
1019.4mb 48f 44f
5:50am 2.5ft 11s 6s 4 7 mph 1019.5mb 48f 44f
4:50am 2ft 11s 6s 4 7 mph 1019.6mb 48f 45f
3:50am 2.5ft 11s 6s 2 4 mph 1019.7mb 48f 45f
2:50am 2.5ft 11s 7s 2 7 mph 1019.7mb 48f 45f
1:50am 2.5ft 12s 7s 4 7 mph 1019.7mb 48f 45f
12:50am 2ft 7s 6s  -  mph 1020mb 49f 46f
Fri 05/27 11:50pm 2ft 7s 6s  -  2 mph 1020mb 49f 46f
10:50pm 2.5ft 8s 6s 2 4 mph 1020.2mb 48f 46f
9:50pm 2ft 7s 5s 2 4 mph 1019.9mb 49f 46f
8:50pm 2ft 7s 5s 4
mph
1019.6mb 49f 46f
7:50pm  -   -   -  4 7 mph 1019.3mb 48f 46f
6:50pm 2ft 7s 5s 7
mph
1019.4mb 49f 46f
5:50pm 2.5ft 7s 5s 4
mph
1019.6mb 49f 46f
4:50pm 2.5ft 7s 5s 4
mph
1019.6mb 49f 46f
3:50pm 2.5ft 6s 5s 2 4 mph 1019.8mb 49f 46f
2:50pm 2ft 7s 5s 2 4 mph 1019.9mb 49f 46f
1:50pm 2ft 7s 5s 2 4 mph 1019.8mb 49f 46f
12:50pm 2ft 6s 5s 2 4 mph 1019.7mb 48f 45f
11:50am 2ft 6s 5s 4 7 mph 1019.6mb 48f 45f
10:50am 2ft 7s 5s 2 4 mph 1019.5mb 48f 45f
9:50am 2ft 7s 5s 2 4 mph 1019.3mb 48f 45f
8:50am 2.5ft 7s 5s 2 4 mph 1019.2mb 48f 45f
7:50am 2.5ft 5s 4s 2 4 mph 1019.3mb 48f 45f
6:50am 2.5ft 7s 5s 2 4 mph 1019.5mb 48f 44f
5:50am 2.5ft 6s 5s 2
mph
1019.7mb 48f 44f
4:50am 2.5ft 6s 5s 4 7 mph 1019.8mb 48f 44f
3:50am 3ft 7s 5s 4 7 mph 1020mb 48f 44f
2:50am 2.5ft 6s 5s 4 9 mph 1020.5mb 48f 44f
1:50am 3ft 6s 5s 7 9 mph 1020.6mb 48f 45f
12:50am 2.5ft 6s 5s 4 7 mph 1021mb 48f 45f
Thu 05/26 11:50pm 2.5ft 6s 5s 4 9 mph 1021.3mb 48f 45f
10:50pm 3ft 6s 5s 7 9 mph 1021.4mb 48f 46f
9:50pm 3ft 6s 5s 7 9 mph 1021.6mb 48f 46f
8:50pm 3ft 7s 5s 9 11 mph 1021.8mb 48f 46f
7:50pm 3.5ft 7s 5s 9 11 mph 1021.9mb 48f 46f
6:50pm 3.5ft 7s 5s 9 11 mph 1022.2mb 48f 46f
5:50pm  -   -   -  9 11 mph 1022.5mb 48f 47f
4:50pm 3.5ft 6s 5s 9 11 mph 1022.8mb 48f 47f
3:50pm 4ft 6s 5s 9 11 mph 1023.1mb 48f 47f
2:50pm 3.5ft 6s 5s 9 11 mph 1023.4mb 48f 47f
1:50pm 3.5ft 6s 5s 9 11 mph 1023.6mb 48f 47f
12:50pm 4ft 6s 6s 9
mph
1023.8mb 48f 47f
11:50am 3.5ft 7s 5s 7 9 mph 1024.3mb 48f 47f
10:50am 3.5ft 7s 5s 7 9 mph 1024.4mb 48f 47f
9:50am 3.5ft 7s 5s 7 9 mph 1024.4mb 48f 47f
8:50am 3.5ft 7s 5s 9
mph
1024.1mb 48f 47f
7:50am 4ft 6s 5s 9 11 mph 1024.1mb 48f 46f
6:50am 4ft 6s 5s 9 11 mph 1024.2mb 48f 46f
5:50am 4ft 6s 5s 11 13 mph 1024.1mb 48f 46f
4:50am 4.5ft 6s 5s 11 13 mph 1024.1mb 48f 47f
3:50am 4ft 7s 5s 13 16 mph 1024.5mb 48f 47f
2:50am 4.5ft 6s 5s 13 16 mph 1024.7mb 48f 47f
1:50am 4.5ft 6s 5s 11 13 mph 1025.1mb 48f 47f
12:50am 4.5ft 7s 5s 13 16 mph 1025mb 48f 47f
Wed 05/25 11:50pm 4.5ft 7s 5s 11 16 mph 1025mb 48f 47f
10:50pm 5ft 7s 5s 13 16 mph 1025mb 48f 47f
9:50pm 5ft 7s 5s 13 18 mph 1025.1mb 48f 47f
8:50pm 5ft 7s 5s 13 16 mph 1024.8mb 48f 47f
7:50pm 5ft 7s 5s 16 20 mph 1024.6mb 48f 47f
6:50pm 5ft 6s 5s 16 18 mph 1024.5mb 48f 47f
5:50pm 5ft 6s 5s 16 18 mph 1024.3mb 48f 47f
4:50pm 5.5ft 6s 5s 16 18 mph 1024.4mb 48f 47f
3:50pm 5ft 6s 5s 16 20 mph 1024.5mb 48f 47f
2:50pm 5.5ft 5s 5s 18 20 mph 1024.5mb 48f 47f
1:50pm 5ft 6s 5s 18 20 mph 1024.5mb 48f 47f
12:50pm 5ft 8s 5s 16 20 mph 1024.3mb 48f 47f